createdAt,value
2023-05-21T00:01:16.503Z,96517.44
2023-05-21T00:04:15.635Z,96509.91
2023-05-21T00:07:12.810Z,96518.97
2023-05-21T00:10:10.186Z,96517.47
2023-05-21T00:13:08.994Z,96502.31
2023-05-21T00:16:06.387Z,96506.72
2023-05-21T00:19:03.575Z,96508.84
2023-05-21T00:22:03.706Z,96508.56
2023-05-21T00:25:00.611Z,96495.84
2023-05-21T00:27:58.259Z,96498.59
2023-05-21T00:30:55.135Z,96492.91
2023-05-21T00:33:52.443Z,96497.31
2023-05-21T00:36:49.320Z,96491.34
2023-05-21T00:39:46.350Z,96485.72
2023-05-21T00:42:46.482Z,96490.44
2023-05-21T00:45:44.508Z,96481.00
2023-05-21T00:48:41.600Z,96488.56
2023-05-21T00:51:38.511Z,96482.09
2023-05-21T00:54:35.459Z,96475.91
2023-05-21T00:57:33.309Z,96470.13
2023-05-21T01:00:33.530Z,96469.84
2023-05-21T01:03:31.075Z,96472.41
2023-05-21T01:06:28.490Z,96466.59
2023-05-21T01:09:26.822Z,96475.00
2023-05-21T01:12:23.946Z,96460.31
2023-05-21T01:15:21.029Z,96469.63
2023-05-21T01:18:20.103Z,96466.59
2023-05-21T01:21:18.346Z,96466.56
2023-05-21T01:24:16.002Z,96455.47
2023-05-21T01:27:13.014Z,96462.53
2023-05-21T01:30:10.733Z,96463.00
2023-05-21T01:33:29.629Z,96460.16
2023-05-21T01:36:34.709Z,96447.13
2023-05-21T01:39:38.275Z,96452.84
2023-05-21T01:42:38.982Z,96455.09
2023-05-21T01:45:39.419Z,96453.91
2023-05-21T01:48:37.993Z,96459.75
2023-05-21T01:51:35.862Z,96454.84
2023-05-21T01:54:32.720Z,96456.03
2023-05-21T01:57:29.644Z,96451.28
2023-05-21T02:00:29.446Z,96450.13
2023-05-21T02:03:28.191Z,96448.00
2023-05-21T02:06:25.220Z,96449.69
2023-05-21T02:09:22.078Z,96449.81
2023-05-21T02:12:18.926Z,96447.94
2023-05-21T02:15:17.857Z,96445.25
2023-05-21T02:18:18.466Z,96441.91
2023-05-21T02:21:15.595Z,96439.69
2023-05-21T02:24:12.449Z,96441.72
2023-05-21T02:27:10.633Z,96446.97
2023-05-21T02:30:11.976Z,96446.50
2023-05-21T02:33:09.311Z,96444.28
2023-05-21T02:36:12.879Z,96455.09
2023-05-21T02:39:09.783Z,96442.03
2023-05-21T02:42:06.675Z,96444.41
2023-05-21T02:45:03.808Z,96441.81
2023-05-21T02:48:00.732Z,96449.81
2023-05-21T02:50:58.431Z,96456.22
2023-05-21T02:53:55.374Z,96452.16
2023-05-21T02:56:52.238Z,96451.47
2023-05-21T02:59:49.087Z,96448.56
2023-05-21T03:02:46.101Z,96451.91
2023-05-21T03:05:43.043Z,96449.13
2023-05-21T03:08:39.890Z,96439.13
2023-05-21T03:11:37.106Z,96437.22
2023-05-21T03:14:34.048Z,96448.56
2023-05-21T03:17:31.201Z,96441.25
2023-05-21T03:20:28.912Z,96436.84
2023-05-21T03:23:26.907Z,96440.38
2023-05-21T03:26:23.996Z,96444.63
2023-05-21T03:29:20.869Z,96437.97
2023-05-21T03:32:17.778Z,96442.50
2023-05-21T03:35:14.773Z,96442.16
2023-05-21T03:38:11.653Z,96436.09
2023-05-21T03:41:09.354Z,96444.28
2023-05-21T03:44:06.222Z,96437.88
2023-05-21T03:47:03.086Z,96439.94
2023-05-21T03:50:00.042Z,96444.31
2023-05-21T03:52:56.969Z,96444.97
2023-05-21T03:55:55.417Z,96441.59
2023-05-21T03:58:52.796Z,96444.41
2023-05-21T04:01:49.649Z,96438.53
2023-05-21T04:04:47.575Z,96449.03
2023-05-21T04:07:46.474Z,96444.53
2023-05-21T04:10:43.348Z,96448.91
2023-05-21T04:13:40.507Z,96453.31
2023-05-21T04:16:38.805Z,96446.66
2023-05-21T04:19:35.852Z,96454.22
2023-05-21T04:22:33.722Z,96453.53
2023-05-21T04:25:30.612Z,96452.06
2023-05-21T04:28:28.777Z,96452.53
2023-05-21T04:31:25.942Z,96452.38
2023-05-21T04:34:22.849Z,96456.97
2023-05-21T04:37:19.847Z,96454.03
2023-05-21T04:40:18.279Z,96444.03
2023-05-21T04:43:17.113Z,96443.81
2023-05-21T04:46:14.099Z,96443.00
2023-05-21T04:49:11.594Z,96443.28
2023-05-21T04:52:08.466Z,96452.44
2023-05-21T04:55:06.489Z,96451.50
2023-05-21T04:58:03.330Z,96449.13
2023-05-21T05:01:03.244Z,96450.13
2023-05-21T05:04:00.471Z,96453.13
2023-05-21T05:06:57.423Z,96457.97
2023-05-21T05:09:54.288Z,96451.25
2023-05-21T05:12:51.345Z,96447.94
2023-05-21T05:15:50.199Z,96452.16
2023-05-21T05:18:47.953Z,96445.56
2023-05-21T05:21:44.848Z,96455.25
2023-05-21T05:24:41.865Z,96454.47
2023-05-21T05:27:38.780Z,96438.75
2023-05-21T05:30:36.273Z,96460.66
2023-05-21T05:33:33.216Z,96457.88
2023-05-21T05:36:30.283Z,96451.06
2023-05-21T05:39:27.187Z,96442.69
2023-05-21T05:42:24.038Z,96443.56
2023-05-21T05:45:21.139Z,96451.34
2023-05-21T05:48:18.088Z,96452.63
2023-05-21T05:51:15.457Z,96444.16
2023-05-21T05:54:12.345Z,96440.84
2023-05-21T05:57:09.518Z,96444.13
2023-05-21T06:00:09.651Z,96446.47
2023-05-21T06:03:06.610Z,96444.44
2023-05-21T06:06:03.694Z,96456.78
2023-05-21T06:09:01.016Z,96453.22
2023-05-21T06:11:58.175Z,96447.94
2023-05-21T06:14:55.035Z,96450.16
2023-05-21T06:17:51.944Z,96446.09
2023-05-21T06:20:48.811Z,96451.59
2023-05-21T06:23:45.855Z,96452.16
2023-05-21T06:26:42.737Z,96445.69
2023-05-21T06:29:40.844Z,96443.56
2023-05-21T06:32:37.848Z,96442.97
2023-05-21T06:35:37.184Z,96446.56
2023-05-21T06:38:34.662Z,96438.25
2023-05-21T06:41:31.709Z,96437.66
2023-05-21T06:44:28.618Z,96438.97
2023-05-21T06:47:25.504Z,96431.94
2023-05-21T06:50:22.407Z,96434.56
2023-05-21T06:53:19.620Z,96430.75
2023-05-21T06:56:16.592Z,96426.03
2023-05-21T06:59:13.461Z,96423.25
2023-05-21T07:02:10.453Z,96416.88
2023-05-21T07:05:08.123Z,96418.28
2023-05-21T07:08:05.024Z,96415.84
2023-05-21T07:11:01.941Z,96414.69
2023-05-21T07:14:03.931Z,96411.00
2023-05-21T07:17:00.892Z,96415.56
2023-05-21T07:19:57.802Z,96409.81
2023-05-21T07:22:54.653Z,96406.78
2023-05-21T07:25:51.645Z,96404.66
2023-05-21T07:28:48.500Z,96416.44
2023-05-21T07:31:45.469Z,96416.41
2023-05-21T07:34:42.358Z,96405.16
2023-05-21T07:37:39.238Z,96404.47
2023-05-21T07:40:36.368Z,96400.34
2023-05-21T07:43:33.227Z,96392.16
2023-05-21T07:46:30.174Z,96392.22
2023-05-21T07:49:27.106Z,96398.47
2023-05-21T07:52:24.021Z,96400.34
2023-05-21T07:55:21.330Z,96401.94
2023-05-21T07:58:19.609Z,96403.16
2023-05-21T08:01:17.243Z,96393.47
2023-05-21T08:04:14.500Z,96398.28
2023-05-21T08:07:13.713Z,96392.59
2023-05-21T08:10:11.241Z,96389.16
2023-05-21T08:13:08.234Z,96389.53
2023-05-21T08:16:06.247Z,96382.94
2023-05-21T08:19:03.737Z,96384.44
2023-05-21T08:22:00.685Z,96379.00
2023-05-21T08:24:57.572Z,96377.88
2023-05-21T08:27:54.698Z,96388.72
2023-05-21T08:30:51.564Z,96379.66
2023-05-21T08:33:53.010Z,96381.28
2023-05-21T08:36:53.901Z,96379.78
2023-05-21T08:39:50.747Z,96372.94
2023-05-21T08:42:51.603Z,96385.94
2023-05-21T08:45:55.086Z,96382.38
2023-05-21T08:48:55.821Z,96386.63
2023-05-21T08:51:53.749Z,96374.16
2023-05-21T08:54:52.401Z,96391.41
2023-05-21T08:57:50.383Z,96384.78
2023-05-21T09:00:47.254Z,96380.81
2023-05-21T09:03:44.302Z,96379.19
2023-05-21T09:06:41.638Z,96385.44
2023-05-21T09:09:52.156Z,96395.66
2023-05-21T09:12:49.126Z,96387.22
2023-05-21T09:15:46.930Z,96377.09
2023-05-21T09:18:43.891Z,96377.31
2023-05-21T09:21:40.767Z,96388.50
2023-05-21T09:24:37.681Z,96378.22
2023-05-21T09:27:35.143Z,96383.28
2023-05-21T09:30:35.710Z,96392.50
2023-05-21T09:33:33.166Z,96379.50
2023-05-21T09:36:30.077Z,96371.84
2023-05-21T09:39:33.393Z,96371.47
2023-05-21T09:42:30.803Z,96380.81
2023-05-21T09:45:28.854Z,96378.47
2023-05-21T09:48:42.764Z,96376.94
2023-05-21T09:51:40.099Z,96374.34
2023-05-21T09:54:36.974Z,96364.06
2023-05-21T09:57:40.085Z,96356.81
2023-05-21T10:00:37.196Z,96364.97
2023-05-21T10:06:43.404Z,96355.16
2023-05-21T10:09:41.255Z,96348.47
2023-05-21T10:12:40.424Z,96352.03
2023-05-21T10:15:43.825Z,96345.66
2023-05-21T10:18:42.419Z,96353.66
2023-05-21T10:21:39.981Z,96338.78
2023-05-21T10:24:38.040Z,96344.03
2023-05-21T10:27:38.188Z,96337.41
2023-05-21T10:30:37.344Z,96340.22
2023-05-21T10:33:36.589Z,96337.69
2023-05-21T10:36:36.351Z,96334.47
2023-05-21T10:39:34.436Z,96331.63
2023-05-21T10:42:31.165Z,96326.09
2023-05-21T10:46:09.252Z,96319.91
2023-05-21T10:49:18.577Z,96329.06
2023-05-21T10:52:50.008Z,96315.84
2023-05-21T10:56:22.858Z,96321.44
2023-05-21T10:59:43.775Z,96332.53
2023-05-21T11:02:41.001Z,96324.50
2023-05-21T11:05:51.315Z,96324.09
2023-05-21T11:08:48.367Z,96307.75
2023-05-21T11:11:54.068Z,96318.00
2023-05-21T11:14:58.050Z,96314.19
2023-05-21T11:17:57.244Z,96314.22
2023-05-21T11:20:54.161Z,96304.78
2023-05-21T11:23:51.064Z,96315.41
2023-05-21T11:26:47.887Z,96300.13
2023-05-21T11:29:45.624Z,96302.09
2023-05-21T11:33:07.437Z,96279.50
2023-05-21T11:36:13.183Z,96288.69
2023-05-21T11:39:13.020Z,96297.69
2023-05-21T11:42:09.884Z,96291.88
2023-05-21T11:45:08.121Z,96276.47
2023-05-21T11:48:06.300Z,96286.91
2023-05-21T11:51:03.298Z,96295.31
2023-05-21T11:54:01.172Z,96292.41
2023-05-21T11:56:58.745Z,96295.31
2023-05-21T11:59:56.306Z,96289.91
2023-05-21T12:02:55.554Z,96306.13
2023-05-21T12:05:53.980Z,96288.00
2023-05-21T12:08:58.138Z,96294.25
2023-05-21T12:11:55.146Z,96287.44
2023-05-21T12:14:54.232Z,96286.31
2023-05-21T12:17:52.914Z,96290.63
2023-05-21T12:20:52.184Z,96286.47
2023-05-21T12:23:49.242Z,96298.22
2023-05-21T12:26:46.517Z,96298.78
2023-05-21T12:29:46.602Z,96284.13
2023-05-21T12:32:44.368Z,96287.84
2023-05-21T12:35:41.384Z,96282.56
2023-05-21T12:38:38.352Z,96292.41
2023-05-21T12:41:35.406Z,96293.28
2023-05-21T12:44:33.498Z,96285.75
2023-05-21T12:47:33.275Z,96277.22
2023-05-21T12:50:30.271Z,96289.22
2023-05-21T12:53:41.935Z,96284.88
2023-05-21T12:56:46.373Z,96279.81
2023-05-21T13:00:00.431Z,96287.88
2023-05-21T13:03:00.069Z,96276.91
2023-05-21T13:06:01.242Z,96276.94
2023-05-21T13:08:58.145Z,96275.25
2023-05-21T13:11:54.995Z,96271.38
2023-05-21T13:14:57.474Z,96258.81
2023-05-21T13:17:56.050Z,96285.66
2023-05-21T13:20:53.893Z,96285.16
2023-05-21T13:23:50.819Z,96279.16
2023-05-21T13:26:47.715Z,96271.66
2023-05-21T13:29:44.574Z,96279.38
2023-05-21T13:32:42.769Z,96277.44
2023-05-21T13:35:39.862Z,96267.25
2023-05-21T13:38:36.756Z,96276.84
2023-05-21T13:41:33.676Z,96265.63
2023-05-21T13:44:33.290Z,96277.81
2023-05-21T13:47:30.549Z,96281.16
2023-05-21T13:50:27.554Z,96283.84
2023-05-21T13:53:24.425Z,96286.69
2023-05-21T13:56:21.845Z,96279.41
2023-05-21T13:59:19.145Z,96280.59
2023-05-21T14:02:16.329Z,96276.38
2023-05-21T14:05:13.588Z,96276.34
2023-05-21T14:08:10.536Z,96275.69
2023-05-21T14:11:07.409Z,96265.72
2023-05-21T14:14:04.783Z,96274.16
2023-05-21T14:17:01.808Z,96278.28
2023-05-21T14:19:58.792Z,96263.81
2023-05-21T14:22:55.787Z,96264.84
2023-05-21T14:25:52.777Z,96265.47
2023-05-21T14:28:49.763Z,96255.56
2023-05-21T14:31:46.696Z,96252.25
2023-05-21T14:34:43.563Z,96250.97
2023-05-21T14:37:42.032Z,96248.28
2023-05-21T14:40:39.035Z,96250.31
2023-05-21T14:43:36.234Z,96251.19
2023-05-21T14:46:33.344Z,96244.41
2023-05-21T14:49:30.267Z,96249.41
2023-05-21T14:52:27.124Z,96243.19
2023-05-21T14:55:24.025Z,96253.41
2023-05-21T14:58:20.962Z,96249.19
2023-05-21T15:01:18.515Z,96250.66
2023-05-21T15:04:15.487Z,96251.28
2023-05-21T15:07:12.414Z,96263.97
2023-05-21T15:10:10.017Z,96260.44
2023-05-21T15:13:07.233Z,96260.25
2023-05-21T15:16:04.371Z,96257.69
2023-05-21T15:19:01.477Z,96257.44
2023-05-21T15:21:58.646Z,96250.97
2023-05-21T15:24:55.640Z,96255.59
2023-05-21T15:27:54.583Z,96249.69
2023-05-21T15:30:51.510Z,96254.63
2023-05-21T15:33:49.029Z,96246.88
2023-05-21T15:36:46.183Z,96249.34
2023-05-21T15:39:44.290Z,96241.63
2023-05-21T15:42:41.406Z,96249.53
2023-05-21T15:45:38.878Z,96254.72
2023-05-21T15:48:36.272Z,96255.25
2023-05-21T15:51:33.151Z,96258.56
2023-05-21T15:54:30.694Z,96249.47
2023-05-21T15:57:27.560Z,96252.00
2023-05-21T16:00:24.527Z,96246.94
2023-05-21T16:03:21.449Z,96251.50
2023-05-21T16:06:19.808Z,96253.88
2023-05-21T16:09:16.684Z,96248.56
2023-05-21T16:12:13.634Z,96247.31
2023-05-21T16:15:10.838Z,96249.59
2023-05-21T16:18:09.629Z,96237.38
2023-05-21T16:21:06.651Z,96234.78
2023-05-21T16:24:04.049Z,96233.38
2023-05-21T16:27:00.922Z,96233.38
2023-05-21T16:29:58.391Z,96227.00
2023-05-21T16:32:55.311Z,96228.19
2023-05-21T16:35:54.374Z,96232.31
2023-05-21T16:38:51.318Z,96226.72
2023-05-21T16:41:48.203Z,96224.00
2023-05-21T16:44:45.045Z,96218.56
2023-05-21T16:47:41.947Z,96227.50
2023-05-21T16:50:40.015Z,96218.44
2023-05-21T16:53:36.965Z,96222.56
2023-05-21T16:56:33.859Z,96209.00
2023-05-21T16:59:30.751Z,96218.84
2023-05-21T17:02:27.676Z,96219.41
2023-05-21T17:05:25.945Z,96221.81
2023-05-21T17:08:22.812Z,96216.25
2023-05-21T17:11:19.685Z,96223.66
2023-05-21T17:14:27.005Z,96225.81
2023-05-21T17:17:31.053Z,96227.03
2023-05-21T17:20:27.963Z,96214.94
2023-05-21T17:23:24.944Z,96219.38
2023-05-21T17:26:22.392Z,96219.88
2023-05-21T17:29:19.524Z,96220.88
2023-05-21T17:32:16.866Z,96216.66
2023-05-21T17:35:13.756Z,96222.38
2023-05-21T17:38:10.717Z,96229.34
2023-05-21T17:41:07.656Z,96225.03
2023-05-21T17:44:04.764Z,96226.13
2023-05-21T17:47:01.775Z,96225.34
2023-05-21T17:49:58.658Z,96234.63
2023-05-21T17:52:55.518Z,96229.53
2023-05-21T17:55:52.423Z,96244.53
2023-05-21T17:58:50.281Z,96239.56
2023-05-21T18:01:47.182Z,96243.66
2023-05-21T18:04:44.022Z,96245.28
2023-05-21T18:07:41.425Z,96260.78
2023-05-21T18:10:38.386Z,96252.19
2023-05-21T18:13:35.260Z,96254.03
2023-05-21T18:16:32.207Z,96269.59
2023-05-21T18:19:32.215Z,96266.66
2023-05-21T18:22:29.119Z,96263.31
2023-05-21T18:25:25.970Z,96261.38
2023-05-21T18:28:22.832Z,96266.59
2023-05-21T18:31:20.197Z,96267.78
2023-05-21T18:34:17.443Z,96271.06
2023-05-21T18:37:14.798Z,96269.81
2023-05-21T18:40:13.207Z,96274.59
2023-05-21T18:43:10.872Z,96271.47
2023-05-21T18:46:07.890Z,96277.78
2023-05-21T18:49:05.677Z,96272.78
2023-05-21T18:52:02.606Z,96279.44
2023-05-21T18:54:59.443Z,96279.03
2023-05-21T18:57:56.659Z,96284.56
2023-05-21T19:00:53.544Z,96292.75
2023-05-21T19:03:50.459Z,96283.38
2023-05-21T19:06:47.563Z,96292.75
2023-05-21T19:09:44.475Z,96293.94
2023-05-21T19:12:42.656Z,96293.94
2023-05-21T19:15:39.844Z,96305.63
2023-05-21T19:18:37.049Z,96298.22
2023-05-21T19:21:33.950Z,96312.63
2023-05-21T19:24:30.783Z,96307.16
2023-05-21T19:27:29.337Z,96307.91
2023-05-21T19:30:26.874Z,96315.34
2023-05-21T19:33:23.800Z,96321.19
2023-05-21T19:36:21.606Z,96324.63
2023-05-21T19:39:18.482Z,96324.91
2023-05-21T19:42:17.132Z,96340.19
2023-05-21T19:45:15.552Z,96334.63
2023-05-21T19:48:12.515Z,96340.53
2023-05-21T19:51:09.463Z,96339.75
2023-05-21T19:54:06.372Z,96337.84
2023-05-21T19:57:03.482Z,96344.09
2023-05-21T20:00:00.457Z,96347.22
2023-05-21T20:02:57.696Z,96348.41
2023-05-21T20:05:54.758Z,96347.25
2023-05-21T20:08:52.158Z,96350.59
2023-05-21T20:11:49.029Z,96346.31
2023-05-21T20:14:47.427Z,96343.47
2023-05-21T20:17:44.698Z,96340.69
2023-05-21T20:20:41.822Z,96349.50
2023-05-21T20:23:38.875Z,96339.75
2023-05-21T20:26:36.450Z,96329.69
2023-05-21T20:29:33.358Z,96334.56
2023-05-21T20:32:30.244Z,96331.66
2023-05-21T20:35:27.729Z,96339.41
2023-05-21T20:38:28.128Z,96333.91
2023-05-21T20:41:25.283Z,96339.31
2023-05-21T20:44:22.559Z,96333.00
2023-05-21T20:47:20.278Z,96338.44
2023-05-21T20:50:26.095Z,96337.16
2023-05-21T20:53:23.670Z,96338.81
2023-05-21T20:56:29.910Z,96335.47
2023-05-21T20:59:37.422Z,96341.38
2023-05-21T21:02:34.342Z,96342.84
2023-05-21T21:05:31.356Z,96344.97
2023-05-21T21:08:28.252Z,96345.16
2023-05-21T21:11:26.645Z,96346.19
2023-05-21T21:14:23.522Z,96351.25
2023-05-21T21:17:20.673Z,96362.66
2023-05-21T21:20:18.641Z,96358.19
2023-05-21T21:23:16.502Z,96362.25
2023-05-21T21:26:13.366Z,96370.84
2023-05-21T21:29:10.365Z,96368.47
2023-05-21T21:32:07.931Z,96368.84
2023-05-21T21:35:05.955Z,96367.28
2023-05-21T21:38:04.882Z,96359.47
2023-05-21T21:41:01.855Z,96364.41
2023-05-21T21:43:58.966Z,96367.25
2023-05-21T21:46:55.824Z,96362.75
2023-05-21T21:49:52.672Z,96366.94
2023-05-21T21:52:49.657Z,96360.50
2023-05-21T21:55:46.522Z,96364.16
2023-05-21T21:58:43.372Z,96361.13
2023-05-21T22:01:40.376Z,96362.13
2023-05-21T22:04:37.372Z,96366.94
2023-05-21T22:07:35.022Z,96362.69
2023-05-21T22:10:33.546Z,96360.06
2023-05-21T22:13:30.470Z,96360.69
2023-05-21T22:16:28.289Z,96361.09
2023-05-21T22:19:25.358Z,96362.88
2023-05-21T22:22:23.178Z,96355.50
2023-05-21T22:25:20.142Z,96368.22
2023-05-21T22:28:17.033Z,96355.25
2023-05-21T22:31:13.921Z,96357.66
2023-05-21T22:34:11.002Z,96364.66
2023-05-21T22:37:07.839Z,96356.75
2023-05-21T22:40:06.889Z,96361.69
2023-05-21T22:43:03.876Z,96359.81
2023-05-21T22:46:01.801Z,96363.44
2023-05-21T22:49:00.173Z,96354.28
2023-05-21T22:51:58.132Z,96362.28
2023-05-21T22:54:55.025Z,96362.63
2023-05-21T22:57:52.008Z,96365.66
2023-05-21T23:00:49.165Z,96357.34
2023-05-21T23:03:46.102Z,96358.78
2023-05-21T23:06:43.148Z,96358.97
2023-05-21T23:09:40.176Z,96360.72
2023-05-21T23:12:37.462Z,96355.09
2023-05-21T23:15:34.338Z,96351.53
2023-05-21T23:18:31.260Z,96346.34
2023-05-21T23:21:28.259Z,96349.47
2023-05-21T23:24:25.149Z,96349.97
2023-05-21T23:27:22.007Z,96349.31
2023-05-21T23:30:18.942Z,96342.91
2023-05-21T23:33:15.789Z,96347.00
2023-05-21T23:36:12.653Z,96345.47
2023-05-21T23:39:09.504Z,96347.50
2023-05-21T23:42:06.792Z,96350.06
2023-05-21T23:45:04.572Z,96349.06
2023-05-21T23:48:01.518Z,96346.88
2023-05-21T23:50:58.472Z,96345.00
2023-05-21T23:53:55.346Z,96345.47
2023-05-21T23:56:52.244Z,96338.81
2023-05-21T23:59:49.145Z,96330.88
